sensor_id;sensor_type;location;lat;lon;timestamp;pressure;altitude;pressure_sealevel;temperature;humidity
57094;BME280;42970;50.996;3.706;2023-08-30T00:01:20;47177.91;;;-146.65;86.40
57094;BME280;42970;50.996;3.706;2023-08-30T00:03:45;47171.91;;;-146.65;86.20
57094;BME280;42970;50.996;3.706;2023-08-30T00:06:11;47179.91;;;-146.65;86.16
57094;BME280;42970;50.996;3.706;2023-08-30T00:08:36;47175.91;;;-146.65;85.98
57094;BME280;42970;50.996;3.706;2023-08-30T00:11:02;47175.91;;;-146.65;86.19
57094;BME280;42970;50.996;3.706;2023-08-30T00:13:29;47177.91;;;-146.65;86.16
57094;BME280;42970;50.996;3.706;2023-08-30T00:15:55;47177.91;;;-146.65;85.81
57094;BME280;42970;50.996;3.706;2023-08-30T00:18:20;47175.91;;;-146.65;86.03
57094;BME280;42970;50.996;3.706;2023-08-30T00:20:46;47175.91;;;-146.65;85.88
57094;BME280;42970;50.996;3.706;2023-08-30T00:23:11;47173.91;;;-146.65;85.91
57094;BME280;42970;50.996;3.706;2023-08-30T00:25:37;47171.91;;;-146.65;85.90
57094;BME280;42970;50.996;3.706;2023-08-30T00:28:02;47175.91;;;-146.65;85.72
57094;BME280;42970;50.996;3.706;2023-08-30T00:30:27;47175.91;;;-146.65;85.53
57094;BME280;42970;50.996;3.706;2023-08-30T00:32:53;47175.91;;;-146.65;85.37
57094;BME280;42970;50.996;3.706;2023-08-30T00:35:18;47173.91;;;-146.65;85.85
57094;BME280;42970;50.996;3.706;2023-08-30T00:37:43;47175.91;;;-146.65;85.86
57094;BME280;42970;50.996;3.706;2023-08-30T00:40:09;47173.91;;;-146.65;86.05
57094;BME280;42970;50.996;3.706;2023-08-30T00:42:34;47175.91;;;-146.65;86.23
57094;BME280;42970;50.996;3.706;2023-08-30T00:44:59;47173.91;;;-146.65;86.26
57094;BME280;42970;50.996;3.706;2023-08-30T00:47:25;47171.91;;;-146.65;86.56
57094;BME280;42970;50.996;3.706;2023-08-30T00:49:50;47177.91;;;-146.65;86.39
57094;BME280;42970;50.996;3.706;2023-08-30T00:52:15;47173.91;;;-146.65;86.60
57094;BME280;42970;50.996;3.706;2023-08-30T00:54:41;47175.91;;;-146.65;87.23
57094;BME280;42970;50.996;3.706;2023-08-30T00:57:06;47173.91;;;-146.65;87.20
57094;BME280;42970;50.996;3.706;2023-08-30T00:59:32;47177.91;;;-146.65;87.43
57094;BME280;42970;50.996;3.706;2023-08-30T01:01:58;47173.91;;;-146.65;87.57
57094;BME280;42970;50.996;3.706;2023-08-30T01:04:24;47175.91;;;-146.65;87.71
57094;BME280;42970;50.996;3.706;2023-08-30T01:06:50;47175.91;;;-146.65;87.47
57094;BME280;42970;50.996;3.706;2023-08-30T01:09:15;47173.91;;;-146.65;87.91
57094;BME280;42970;50.996;3.706;2023-08-30T01:14:18;47175.91;;;-146.65;87.90
57094;BME280;42970;50.996;3.706;2023-08-30T01:16:45;47175.91;;;-146.65;87.72
57094;BME280;42970;50.996;3.706;2023-08-30T01:22:03;47177.91;;;-146.65;87.38
57094;BME280;42970;50.996;3.706;2023-08-30T01:24:37;47177.91;;;-146.65;87.15
57094;BME280;42970;50.996;3.706;2023-08-30T01:27:10;47177.91;;;-146.65;86.99
57094;BME280;42970;50.996;3.706;2023-08-30T01:29:39;47175.91;;;-146.65;87.43
57094;BME280;42970;50.996;3.706;2023-08-30T01:32:06;47175.91;;;-146.65;87.51
57094;BME280;42970;50.996;3.706;2023-08-30T01:34:32;47175.91;;;-146.65;88.20
57094;BME280;42970;50.996;3.706;2023-08-30T01:36:59;47177.91;;;-146.65;88.32
57094;BME280;42970;50.996;3.706;2023-08-30T01:39:25;47177.91;;;-146.65;88.63
57094;BME280;42970;50.996;3.706;2023-08-30T01:41:51;47177.91;;;-146.65;89.00
57094;BME280;42970;50.996;3.706;2023-08-30T01:44:20;47171.91;;;-146.65;89.08
57094;BME280;42970;50.996;3.706;2023-08-30T01:46:46;47179.91;;;-146.65;89.65
57094;BME280;42970;50.996;3.706;2023-08-30T01:49:12;47175.91;;;-146.65;89.45
57094;BME280;42970;50.996;3.706;2023-08-30T01:51:38;47173.91;;;-146.65;89.96
57094;BME280;42970;50.996;3.706;2023-08-30T01:54:04;47175.91;;;-146.65;89.89
57094;BME280;42970;50.996;3.706;2023-08-30T01:56:30;47177.91;;;-146.65;89.80
57094;BME280;42970;50.996;3.706;2023-08-30T01:58:55;47179.91;;;-146.65;89.52
57094;BME280;42970;50.996;3.706;2023-08-30T02:01:21;47173.91;;;-146.65;89.53
57094;BME280;42970;50.996;3.706;2023-08-30T02:03:46;47173.91;;;-146.65;89.21
57094;BME280;42970;50.996;3.706;2023-08-30T02:06:17;47177.91;;;-146.65;89.08
57094;BME280;42970;50.996;3.706;2023-08-30T02:08:59;47175.91;;;-146.65;88.76
57094;BME280;42970;50.996;3.706;2023-08-30T02:11:27;47175.91;;;-146.65;88.40
57094;BME280;42970;50.996;3.706;2023-08-30T02:13:53;47173.91;;;-146.65;88.36
57094;BME280;42970;50.996;3.706;2023-08-30T02:16:19;47175.91;;;-146.65;88.20
57094;BME280;42970;50.996;3.706;2023-08-30T02:18:46;47173.91;;;-146.65;88.32
57094;BME280;42970;50.996;3.706;2023-08-30T02:21:11;47175.91;;;-146.65;88.41
57094;BME280;42970;50.996;3.706;2023-08-30T02:23:37;47177.91;;;-146.65;88.33
57094;BME280;42970;50.996;3.706;2023-08-30T02:26:02;47173.91;;;-146.65;88.49
57094;BME280;42970;50.996;3.706;2023-08-30T02:28:30;47173.91;;;-146.65;88.88
57094;BME280;42970;50.996;3.706;2023-08-30T02:30:56;47175.91;;;-146.65;89.76
57094;BME280;42970;50.996;3.706;2023-08-30T02:33:21;47177.91;;;-146.65;90.79
57094;BME280;42970;50.996;3.706;2023-08-30T02:35:47;47173.91;;;-146.65;91.94
57094;BME280;42970;50.996;3.706;2023-08-30T02:38:12;47173.91;;;-146.65;92.73
57094;BME280;42970;50.996;3.706;2023-08-30T02:40:37;47177.91;;;-146.65;93.59
57094;BME280;42970;50.996;3.706;2023-08-30T02:43:03;47173.91;;;-146.65;94.15
57094;BME280;42970;50.996;3.706;2023-08-30T02:45:28;47175.91;;;-146.65;94.30
57094;BME280;42970;50.996;3.706;2023-08-30T02:47:56;47175.91;;;-146.65;93.92
57094;BME280;42970;50.996;3.706;2023-08-30T02:50:22;47173.91;;;-146.65;94.50
57094;BME280;42970;50.996;3.706;2023-08-30T02:52:47;47175.91;;;-146.65;95.10
57094;BME280;42970;50.996;3.706;2023-08-30T02:55:12;47175.91;;;-146.65;95.63
57094;BME280;42970;50.996;3.706;2023-08-30T02:57:38;47179.91;;;-146.65;96.07
57094;BME280;42970;50.996;3.706;2023-08-30T03:00:03;47179.91;;;-146.65;96.29
57094;BME280;42970;50.996;3.706;2023-08-30T03:02:31;47175.91;;;-146.65;96.87
57094;BME280;42970;50.996;3.706;2023-08-30T03:04:56;47177.91;;;-146.65;97.26
57094;BME280;42970;50.996;3.706;2023-08-30T03:07:22;47175.91;;;-146.65;96.94
57094;BME280;42970;50.996;3.706;2023-08-30T03:09:51;47177.91;;;-146.65;97.30
57094;BME280;42970;50.996;3.706;2023-08-30T03:12:16;47175.91;;;-146.65;97.64
57094;BME280;42970;50.996;3.706;2023-08-30T03:14:42;47173.91;;;-146.65;97.48
57094;BME280;42970;50.996;3.706;2023-08-30T03:17:07;47179.91;;;-146.65;97.69
57094;BME280;42970;50.996;3.706;2023-08-30T03:19:32;47173.91;;;-146.65;97.82
57094;BME280;42970;50.996;3.706;2023-08-30T03:21:57;47177.91;;;-146.65;97.44
57094;BME280;42970;50.996;3.706;2023-08-30T03:24:25;47175.91;;;-146.65;97.24
57094;BME280;42970;50.996;3.706;2023-08-30T03:26:50;47175.91;;;-146.65;97.84
57094;BME280;42970;50.996;3.706;2023-08-30T03:29:16;47181.91;;;-146.65;97.92
57094;BME280;42970;50.996;3.706;2023-08-30T03:31:41;47177.91;;;-146.65;98.59
57094;BME280;42970;50.996;3.706;2023-08-30T03:34:08;47177.91;;;-146.65;98.95
57094;BME280;42970;50.996;3.706;2023-08-30T03:36:33;47177.91;;;-146.65;99.51
57094;BME280;42970;50.996;3.706;2023-08-30T03:38:59;47177.91;;;-146.65;100.00
57094;BME280;42970;50.996;3.706;2023-08-30T03:41:24;47173.91;;;-146.65;100.00
57094;BME280;42970;50.996;3.706;2023-08-30T03:43:49;47177.91;;;-146.65;100.00
57094;BME280;42970;50.996;3.706;2023-08-30T03:46:15;47177.91;;;-146.65;100.00
57094;BME280;42970;50.996;3.706;2023-08-30T03:48:40;47177.91;;;-146.65;100.00
57094;BME280;42970;50.996;3.706;2023-08-30T03:51:05;47173.91;;;-146.65;100.00
57094;BME280;42970;50.996;3.706;2023-08-30T03:53:31;47177.91;;;-146.65;100.00
57094;BME280;42970;50.996;3.706;2023-08-30T03:55:56;47177.91;;;-146.65;100.00
57094;BME280;42970;50.996;3.706;2023-08-30T03:58:21;47175.91;;;-146.65;100.00
57094;BME280;42970;50.996;3.706;2023-08-30T04:00:46;47173.91;;;-146.65;100.00
57094;BME280;42970;50.996;3.706;2023-08-30T04:03:12;47171.91;;;-146.65;100.00
57094;BME280;42970;50.996;3.706;2023-08-30T04:05:38;47175.91;;;-146.65;100.00
57094;BME280;42970;50.996;3.706;2023-08-30T04:08:03;47175.91;;;-146.65;100.00
57094;BME280;42970;50.996;3.706;2023-08-30T04:10:29;47175.91;;;-146.65;100.00
57094;BME280;42970;50.996;3.706;2023-08-30T04:12:54;47181.91;;;-146.65;100.00
57094;BME280;42970;50.996;3.706;2023-08-30T04:15:19;47175.91;;;-146.65;100.00
57094;BME280;42970;50.996;3.706;2023-08-30T04:17:45;47173.91;;;-146.65;100.00
57094;BME280;42970;50.996;3.706;2023-08-30T04:20:10;47177.91;;;-146.65;100.00
57094;BME280;42970;50.996;3.706;2023-08-30T04:22:36;47175.91;;;-146.65;100.00
57094;BME280;42970;50.996;3.706;2023-08-30T04:25:02;47171.91;;;-146.65;100.00
57094;BME280;42970;50.996;3.706;2023-08-30T04:27:28;47175.91;;;-146.65;100.00
57094;BME280;42970;50.996;3.706;2023-08-30T04:29:53;47179.91;;;-146.65;100.00
57094;BME280;42970;50.996;3.706;2023-08-30T04:32:18;47175.91;;;-146.65;100.00
57094;BME280;42970;50.996;3.706;2023-08-30T04:34:44;47171.91;;;-146.65;100.00
57094;BME280;42970;50.996;3.706;2023-08-30T04:37:09;47171.91;;;-146.65;100.00
57094;BME280;42970;50.996;3.706;2023-08-30T04:39:34;47177.91;;;-146.65;100.00
57094;BME280;42970;50.996;3.706;2023-08-30T04:41:59;47175.91;;;-146.65;100.00
57094;BME280;42970;50.996;3.706;2023-08-30T04:44:25;47175.91;;;-146.65;100.00
57094;BME280;42970;50.996;3.706;2023-08-30T04:46:53;47177.91;;;-146.65;100.00
57094;BME280;42970;50.996;3.706;2023-08-30T04:49:18;47177.91;;;-146.65;100.00
57094;BME280;42970;50.996;3.706;2023-08-30T04:51:44;47173.91;;;-146.65;100.00
57094;BME280;42970;50.996;3.706;2023-08-30T04:54:09;47175.91;;;-146.65;100.00
57094;BME280;42970;50.996;3.706;2023-08-30T04:56:34;47173.91;;;-146.65;100.00
57094;BME280;42970;50.996;3.706;2023-08-30T04:59:00;47177.91;;;-146.65;100.00
57094;BME280;42970;50.996;3.706;2023-08-30T05:01:28;47175.91;;;-146.65;100.00
57094;BME280;42970;50.996;3.706;2023-08-30T05:03:54;47173.91;;;-146.65;100.00
57094;BME280;42970;50.996;3.706;2023-08-30T05:06:19;47175.91;;;-146.65;100.00
57094;BME280;42970;50.996;3.706;2023-08-30T05:08:44;47179.91;;;-146.65;100.00
57094;BME280;42970;50.996;3.706;2023-08-30T05:11:10;47175.91;;;-146.65;100.00
57094;BME280;42970;50.996;3.706;2023-08-30T05:13:35;47177.91;;;-146.65;100.00
57094;BME280;42970;50.996;3.706;2023-08-30T05:16:01;47175.91;;;-146.65;100.00
57094;BME280;42970;50.996;3.706;2023-08-30T05:18:26;47175.91;;;-146.65;100.00
57094;BME280;42970;50.996;3.706;2023-08-30T05:20:51;47177.91;;;-146.65;100.00
57094;BME280;42970;50.996;3.706;2023-08-30T05:23:16;47173.91;;;-146.65;100.00
57094;BME280;42970;50.996;3.706;2023-08-30T05:25:42;47173.91;;;-146.65;100.00
57094;BME280;42970;50.996;3.706;2023-08-30T05:28:07;47173.91;;;-146.65;100.00
57094;BME280;42970;50.996;3.706;2023-08-30T05:30:32;47177.91;;;-146.65;100.00
57094;BME280;42970;50.996;3.706;2023-08-30T05:32:58;47177.91;;;-146.65;100.00
57094;BME280;42970;50.996;3.706;2023-08-30T05:35:23;47173.91;;;-146.65;100.00
57094;BME280;42970;50.996;3.706;2023-08-30T05:37:48;47173.91;;;-146.65;100.00
57094;BME280;42970;50.996;3.706;2023-08-30T05:40:15;47179.91;;;-146.65;100.00
57094;BME280;42970;50.996;3.706;2023-08-30T05:42:42;47175.91;;;-146.65;100.00
57094;BME280;42970;50.996;3.706;2023-08-30T05:45:07;47173.91;;;-146.65;100.00
57094;BME280;42970;50.996;3.706;2023-08-30T05:47:33;47175.91;;;-146.65;100.00
57094;BME280;42970;50.996;3.706;2023-08-30T05:49:58;47177.91;;;-146.65;100.00
57094;BME280;42970;50.996;3.706;2023-08-30T05:52:24;47173.91;;;-146.65;100.00
57094;BME280;42970;50.996;3.706;2023-08-30T05:54:50;47177.91;;;-146.65;100.00
57094;BME280;42970;50.996;3.706;2023-08-30T05:57:15;47177.91;;;-146.65;100.00
57094;BME280;42970;50.996;3.706;2023-08-30T05:59:41;47173.91;;;-146.65;100.00
57094;BME280;42970;50.996;3.706;2023-08-30T06:02:06;47175.91;;;-146.65;100.00
57094;BME280;42970;50.996;3.706;2023-08-30T06:04:32;47177.91;;;-146.65;100.00
57094;BME280;42970;50.996;3.706;2023-08-30T06:06:57;47177.91;;;-146.65;100.00
57094;BME280;42970;50.996;3.706;2023-08-30T06:09:22;47175.91;;;-146.65;100.00
57094;BME280;42970;50.996;3.706;2023-08-30T06:11:48;47171.91;;;-146.65;100.00
57094;BME280;42970;50.996;3.706;2023-08-30T06:14:13;47175.91;;;-146.65;100.00
57094;BME280;42970;50.996;3.706;2023-08-30T06:16:39;47177.91;;;-146.65;100.00
57094;BME280;42970;50.996;3.706;2023-08-30T06:19:09;47173.91;;;-146.65;100.00
57094;BME280;42970;50.996;3.706;2023-08-30T06:21:34;47177.91;;;-146.65;100.00
57094;BME280;42970;50.996;3.706;2023-08-30T06:23:59;47177.91;;;-146.65;100.00
57094;BME280;42970;50.996;3.706;2023-08-30T06:26:24;47177.91;;;-146.65;100.00
57094;BME280;42970;50.996;3.706;2023-08-30T06:28:50;47173.91;;;-146.65;100.00
57094;BME280;42970;50.996;3.706;2023-08-30T06:31:15;47175.91;;;-146.65;100.00
57094;BME280;42970;50.996;3.706;2023-08-30T06:33:40;47173.91;;;-146.65;100.00
57094;BME280;42970;50.996;3.706;2023-08-30T06:36:06;47173.91;;;-146.65;100.00
57094;BME280;42970;50.996;3.706;2023-08-30T06:38:31;47171.91;;;-146.65;100.00
57094;BME280;42970;50.996;3.706;2023-08-30T06:41:00;47177.91;;;-146.65;100.00
57094;BME280;42970;50.996;3.706;2023-08-30T06:43:25;47173.91;;;-146.65;100.00
57094;BME280;42970;50.996;3.706;2023-08-30T06:45:50;47173.91;;;-146.65;100.00
57094;BME280;42970;50.996;3.706;2023-08-30T06:48:16;47175.91;;;-146.65;100.00
57094;BME280;42970;50.996;3.706;2023-08-30T06:50:41;47177.91;;;-146.65;100.00
57094;BME280;42970;50.996;3.706;2023-08-30T06:53:06;47173.91;;;-146.65;100.00
57094;BME280;42970;50.996;3.706;2023-08-30T06:55:32;47175.91;;;-146.65;100.00
57094;BME280;42970;50.996;3.706;2023-08-30T06:57:58;47173.91;;;-146.65;100.00
57094;BME280;42970;50.996;3.706;2023-08-30T07:00:24;47179.91;;;-146.65;100.00
57094;BME280;42970;50.996;3.706;2023-08-30T07:02:49;47177.91;;;-146.65;100.00
57094;BME280;42970;50.996;3.706;2023-08-30T07:05:14;47173.91;;;-146.65;100.00
57094;BME280;42970;50.996;3.706;2023-08-30T07:07:40;47171.91;;;-146.65;100.00
57094;BME280;42970;50.996;3.706;2023-08-30T07:10:05;47177.91;;;-146.65;100.00
57094;BME280;42970;50.996;3.706;2023-08-30T07:12:31;47177.91;;;-146.65;100.00
57094;BME280;42970;50.996;3.706;2023-08-30T07:14:56;47173.91;;;-146.65;100.00
57094;BME280;42970;50.996;3.706;2023-08-30T07:17:21;47175.91;;;-146.65;100.00
57094;BME280;42970;50.996;3.706;2023-08-30T07:19:47;47179.91;;;-146.65;100.00
57094;BME280;42970;50.996;3.706;2023-08-30T07:22:12;47171.91;;;-146.65;100.00
57094;BME280;42970;50.996;3.706;2023-08-30T07:24:38;47175.91;;;-146.65;100.00
57094;BME280;42970;50.996;3.706;2023-08-30T07:27:03;47175.91;;;-146.65;100.00
57094;BME280;42970;50.996;3.706;2023-08-30T07:29:28;47179.91;;;-146.65;100.00
57094;BME280;42970;50.996;3.706;2023-08-30T07:31:53;47177.91;;;-146.65;100.00
57094;BME280;42970;50.996;3.706;2023-08-30T07:34:19;47173.91;;;-146.65;100.00
57094;BME280;42970;50.996;3.706;2023-08-30T07:36:45;47175.91;;;-146.65;100.00
57094;BME280;42970;50.996;3.706;2023-08-30T07:39:10;47175.91;;;-146.65;100.00
57094;BME280;42970;50.996;3.706;2023-08-30T07:41:36;47171.91;;;-146.65;100.00
57094;BME280;42970;50.996;3.706;2023-08-30T07:44:01;47177.91;;;-146.65;100.00
57094;BME280;42970;50.996;3.706;2023-08-30T07:46:26;47177.91;;;-146.65;100.00
57094;BME280;42970;50.996;3.706;2023-08-30T07:48:52;47171.91;;;-146.65;100.00
57094;BME280;42970;50.996;3.706;2023-08-30T07:51:17;47175.91;;;-146.65;100.00
57094;BME280;42970;50.996;3.706;2023-08-30T07:53:42;47179.91;;;-146.65;100.00
57094;BME280;42970;50.996;3.706;2023-08-30T07:56:08;47177.91;;;-146.65;100.00
57094;BME280;42970;50.996;3.706;2023-08-30T07:58:33;47175.91;;;-146.65;100.00
57094;BME280;42970;50.996;3.706;2023-08-30T08:00:58;47177.91;;;-146.65;100.00
57094;BME280;42970;50.996;3.706;2023-08-30T08:03:24;47175.91;;;-146.65;100.00
57094;BME280;42970;50.996;3.706;2023-08-30T08:05:50;47177.91;;;-146.65;99.52
57094;BME280;42970;50.996;3.706;2023-08-30T08:08:15;47177.91;;;-146.65;99.33
57094;BME280;42970;50.996;3.706;2023-08-30T08:10:44;47175.91;;;-146.65;98.71
57094;BME280;42970;50.996;3.706;2023-08-30T08:13:09;47177.91;;;-146.65;98.16
57094;BME280;42970;50.996;3.706;2023-08-30T08:15:35;47175.91;;;-146.65;97.71
57094;BME280;42970;50.996;3.706;2023-08-30T08:18:01;47177.91;;;-146.65;97.44
57094;BME280;42970;50.996;3.706;2023-08-30T08:20:26;47177.91;;;-146.65;97.15
57094;BME280;42970;50.996;3.706;2023-08-30T08:22:51;47179.91;;;-146.65;97.59
57094;BME280;42970;50.996;3.706;2023-08-30T08:25:17;47175.91;;;-146.65;96.89
57094;BME280;42970;50.996;3.706;2023-08-30T08:27:42;47173.91;;;-146.65;96.59
57094;BME280;42970;50.996;3.706;2023-08-30T08:30:07;47175.91;;;-146.65;96.42
57094;BME280;42970;50.996;3.706;2023-08-30T08:32:34;47175.91;;;-146.65;96.75
57094;BME280;42970;50.996;3.706;2023-08-30T08:35:00;47173.91;;;-146.65;96.59
57094;BME280;42970;50.996;3.706;2023-08-30T08:37:25;47175.91;;;-146.65;95.83
57094;BME280;42970;50.996;3.706;2023-08-30T08:39:50;47177.91;;;-146.65;95.90
57094;BME280;42970;50.996;3.706;2023-08-30T08:42:17;47173.91;;;-146.65;95.35
57094;BME280;42970;50.996;3.706;2023-08-30T08:44:43;47177.91;;;-146.65;93.82
57094;BME280;42970;50.996;3.706;2023-08-30T08:47:08;47179.91;;;-146.65;93.15
57094;BME280;42970;50.996;3.706;2023-08-30T08:49:34;47177.91;;;-146.65;91.35
57094;BME280;42970;50.996;3.706;2023-08-30T08:51:59;47175.91;;;-146.65;90.12
57094;BME280;42970;50.996;3.706;2023-08-30T08:54:25;47179.91;;;-146.65;88.48
57094;BME280;42970;50.996;3.706;2023-08-30T08:56:50;47177.91;;;-146.65;87.85
57094;BME280;42970;50.996;3.706;2023-08-30T08:59:16;47177.91;;;-146.65;88.50
57094;BME280;42970;50.996;3.706;2023-08-30T09:01:42;47175.91;;;-146.65;85.30
57094;BME280;42970;50.996;3.706;2023-08-30T09:04:09;47179.91;;;-146.65;87.36
57094;BME280;42970;50.996;3.706;2023-08-30T09:06:34;47177.91;;;-146.65;86.07
57094;BME280;42970;50.996;3.706;2023-08-30T09:09:01;47177.91;;;-146.65;85.06
57094;BME280;42970;50.996;3.706;2023-08-30T09:11:26;47175.91;;;-146.65;81.89
57094;BME280;42970;50.996;3.706;2023-08-30T09:13:52;47179.91;;;-146.65;78.38
57094;BME280;42970;50.996;3.706;2023-08-30T09:16:17;47179.91;;;-146.65;78.38
57094;BME280;42970;50.996;3.706;2023-08-30T09:18:42;47177.91;;;-146.65;76.99
57094;BME280;42970;50.996;3.706;2023-08-30T09:21:08;47177.91;;;-146.65;76.71
57094;BME280;42970;50.996;3.706;2023-08-30T09:23:34;47183.91;;;-146.65;75.88
57094;BME280;42970;50.996;3.706;2023-08-30T09:25:59;47173.91;;;-146.65;73.17
57094;BME280;42970;50.996;3.706;2023-08-30T09:28:25;47175.91;;;-146.65;73.65
57094;BME280;42970;50.996;3.706;2023-08-30T09:30:50;47175.91;;;-146.65;73.93
57094;BME280;42970;50.996;3.706;2023-08-30T09:33:21;47179.91;;;-146.65;74.47
57094;BME280;42970;50.996;3.706;2023-08-30T09:35:47;47175.91;;;-146.65;76.23
57094;BME280;42970;50.996;3.706;2023-08-30T09:38:18;47179.91;;;-146.65;72.24
57094;BME280;42970;50.996;3.706;2023-08-30T09:40:44;47175.91;;;-146.65;71.62
57094;BME280;42970;50.996;3.706;2023-08-30T09:43:10;47175.91;;;-146.65;67.98
57094;BME280;42970;50.996;3.706;2023-08-30T09:45:35;47177.91;;;-146.65;67.34
57094;BME280;42970;50.996;3.706;2023-08-30T09:48:01;47179.91;;;-146.65;70.16
57094;BME280;42970;50.996;3.706;2023-08-30T09:50:27;47173.91;;;-146.65;66.58
57094;BME280;42970;50.996;3.706;2023-08-30T09:52:54;47173.91;;;-146.65;68.20
57094;BME280;42970;50.996;3.706;2023-08-30T09:55:20;47185.91;;;-146.65;68.83
57094;BME280;42970;50.996;3.706;2023-08-30T09:57:46;47173.91;;;-146.65;67.69
57094;BME280;42970;50.996;3.706;2023-08-30T10:00:12;47177.91;;;-146.65;64.53
57094;BME280;42970;50.996;3.706;2023-08-30T10:02:39;47177.91;;;-146.65;64.15
57094;BME280;42970;50.996;3.706;2023-08-30T10:05:07;47173.91;;;-146.65;64.22
57094;BME280;42970;50.996;3.706;2023-08-30T10:07:33;47177.91;;;-146.65;62.32
57094;BME280;42970;50.996;3.706;2023-08-30T10:09:59;47177.91;;;-146.65;60.45
57094;BME280;42970;50.996;3.706;2023-08-30T10:12:24;47177.91;;;-146.65;61.70
57094;BME280;42970;50.996;3.706;2023-08-30T10:14:50;47173.91;;;-146.65;63.36
57094;BME280;42970;50.996;3.706;2023-08-30T10:17:17;47175.91;;;-146.65;61.41
57094;BME280;42970;50.996;3.706;2023-08-30T10:19:43;47179.91;;;-146.65;60.36
57094;BME280;42970;50.996;3.706;2023-08-30T10:22:08;47177.91;;;-146.65;57.45
57094;BME280;42970;50.996;3.706;2023-08-30T10:24:41;47175.91;;;-146.65;53.09
57094;BME280;42970;50.996;3.706;2023-08-30T10:27:09;47175.91;;;-146.65;56.32
57094;BME280;42970;50.996;3.706;2023-08-30T10:29:35;47181.91;;;-146.65;52.57
57094;BME280;42970;50.996;3.706;2023-08-30T10:32:02;47181.91;;;-146.65;48.81
57094;BME280;42970;50.996;3.706;2023-08-30T10:34:31;47173.91;;;-146.65;48.15
57094;BME280;42970;50.996;3.706;2023-08-30T10:37:00;47183.91;;;-146.65;48.78
57094;BME280;42970;50.996;3.706;2023-08-30T10:39:41;47177.91;;;-146.65;48.61
57094;BME280;42970;50.996;3.706;2023-08-30T10:42:08;47171.91;;;-146.65;48.12
57094;BME280;42970;50.996;3.706;2023-08-30T10:44:33;47179.91;;;-146.65;45.29
57094;BME280;42970;50.996;3.706;2023-08-30T10:46:59;47175.91;;;-146.65;46.23
57094;BME280;42970;50.996;3.706;2023-08-30T10:49:26;47179.91;;;-146.65;45.72
57094;BME280;42970;50.996;3.706;2023-08-30T10:51:59;47177.91;;;-146.65;45.49
57094;BME280;42970;50.996;3.706;2023-08-30T10:54:35;47179.91;;;-146.65;45.72
57094;BME280;42970;50.996;3.706;2023-08-30T10:57:01;47179.91;;;-146.65;49.43
57094;BME280;42970;50.996;3.706;2023-08-30T10:59:27;47175.91;;;-146.65;48.64
57094;BME280;42970;50.996;3.706;2023-08-30T11:01:54;47173.91;;;-146.65;50.10
57094;BME280;42970;50.996;3.706;2023-08-30T11:04:21;47171.91;;;-146.65;51.34
57094;BME280;42970;50.996;3.706;2023-08-30T11:06:47;47173.91;;;-146.65;53.25
57094;BME280;42970;50.996;3.706;2023-08-30T11:09:14;47175.91;;;-146.65;53.11
57094;BME280;42970;50.996;3.706;2023-08-30T11:11:42;47175.91;;;-146.65;55.81
57094;BME280;42970;50.996;3.706;2023-08-30T11:14:08;47181.91;;;-146.65;53.56
57094;BME280;42970;50.996;3.706;2023-08-30T11:16:36;47175.91;;;-146.65;56.19
57094;BME280;42970;50.996;3.706;2023-08-30T11:19:03;47183.91;;;-146.65;51.26
57094;BME280;42970;50.996;3.706;2023-08-30T11:21:29;47177.91;;;-146.65;47.10
57094;BME280;42970;50.996;3.706;2023-08-30T11:23:55;47181.91;;;-146.65;44.12
57094;BME280;42970;50.996;3.706;2023-08-30T11:26:20;47183.91;;;-146.65;43.14
57094;BME280;42970;50.996;3.706;2023-08-30T11:28:45;47181.91;;;-146.65;41.66
57094;BME280;42970;50.996;3.706;2023-08-30T11:31:23;47181.91;;;-146.65;42.06
57094;BME280;42970;50.996;3.706;2023-08-30T11:33:51;47179.91;;;-146.65;41.24
57094;BME280;42970;50.996;3.706;2023-08-30T11:36:18;47175.91;;;-146.65;42.05
57094;BME280;42970;50.996;3.706;2023-08-30T11:38:44;47181.91;;;-146.65;41.00
57094;BME280;42970;50.996;3.706;2023-08-30T11:41:10;47179.91;;;-146.65;42.82
57094;BME280;42970;50.996;3.706;2023-08-30T11:43:35;47177.91;;;-146.65;41.68
57094;BME280;42970;50.996;3.706;2023-08-30T11:46:02;47179.91;;;-146.65;41.50
57094;BME280;42970;50.996;3.706;2023-08-30T11:48:28;47175.91;;;-146.65;42.07
57094;BME280;42970;50.996;3.706;2023-08-30T11:50:54;47179.91;;;-146.65;45.27
57094;BME280;42970;50.996;3.706;2023-08-30T11:53:19;47175.91;;;-146.65;47.71
57094;BME280;42970;50.996;3.706;2023-08-30T11:55:45;47173.91;;;-146.65;50.43
57094;BME280;42970;50.996;3.706;2023-08-30T11:58:10;47179.91;;;-146.65;43.58
57094;BME280;42970;50.996;3.706;2023-08-30T12:00:35;47177.91;;;-146.65;49.67
57094;BME280;42970;50.996;3.706;2023-08-30T12:03:03;47177.91;;;-146.65;54.00
57094;BME280;42970;50.996;3.706;2023-08-30T12:05:30;47185.91;;;-146.65;50.56
57094;BME280;42970;50.996;3.706;2023-08-30T12:07:59;47181.91;;;-146.65;43.48
57094;BME280;42970;50.996;3.706;2023-08-30T12:10:24;47183.91;;;-146.65;41.56
57094;BME280;42970;50.996;3.706;2023-08-30T12:12:50;47173.91;;;-146.65;42.50
57094;BME280;42970;50.996;3.706;2023-08-30T12:15:15;47177.91;;;-146.65;41.60
57094;BME280;42970;50.996;3.706;2023-08-30T12:17:41;47181.91;;;-146.65;41.95
57094;BME280;42970;50.996;3.706;2023-08-30T12:20:13;47177.91;;;-146.65;39.90
57094;BME280;42970;50.996;3.706;2023-08-30T12:22:39;47175.91;;;-146.65;41.66
57094;BME280;42970;50.996;3.706;2023-08-30T12:25:25;47173.91;;;-146.65;52.34
57094;BME280;42970;50.996;3.706;2023-08-30T12:27:51;47179.91;;;-146.65;57.35
57094;BME280;42970;50.996;3.706;2023-08-30T12:30:16;47177.91;;;-146.65;53.93
57094;BME280;42970;50.996;3.706;2023-08-30T12:32:43;47177.91;;;-146.65;54.35
57094;BME280;42970;50.996;3.706;2023-08-30T12:35:08;47175.91;;;-146.65;55.57